sensor_id;sensor_type;location;lat;lon;timestamp;P1;durP1;ratioP1;P2;durP2;ratioP2
80215;SDS011;69532;37.974;23.708;2023-05-07T00:01:42;6.00;;;3.20;;
80215;SDS011;69532;37.974;23.708;2023-05-07T00:04:08;6.22;;;3.58;;
80215;SDS011;69532;37.974;23.708;2023-05-07T00:06:34;6.97;;;3.75;;
80215;SDS011;69532;37.974;23.708;2023-05-07T00:09:00;6.32;;;3.75;;
80215;SDS011;69532;37.974;23.708;2023-05-07T00:11:26;6.70;;;3.97;;
80215;SDS011;69532;37.974;23.708;2023-05-07T00:13:53;6.38;;;4.00;;
80215;SDS011;69532;37.974;23.708;2023-05-07T00:16:18;8.80;;;5.00;;
80215;SDS011;69532;37.974;23.708;2023-05-07T00:18:44;7.72;;;4.15;;
80215;SDS011;69532;37.974;23.708;2023-05-07T00:21:10;6.43;;;4.07;;
80215;SDS011;69532;37.974;23.708;2023-05-07T00:23:36;7.75;;;4.38;;
80215;SDS011;69532;37.974;23.708;2023-05-07T00:26:02;6.70;;;4.22;;
80215;SDS011;69532;37.974;23.708;2023-05-07T00:28:29;6.53;;;3.92;;
80215;SDS011;69532;37.974;23.708;2023-05-07T00:30:54;6.68;;;3.97;;
80215;SDS011;69532;37.974;23.708;2023-05-07T00:33:21;7.43;;;4.38;;
80215;SDS011;69532;37.974;23.708;2023-05-07T00:35:47;6.57;;;3.72;;
80215;SDS011;69532;37.974;23.708;2023-05-07T00:38:13;6.60;;;3.40;;
80215;SDS011;69532;37.974;23.708;2023-05-07T00:40:39;6.90;;;3.75;;
80215;SDS011;69532;37.974;23.708;2023-05-07T00:43:05;6.07;;;3.42;;
80215;SDS011;69532;37.974;23.708;2023-05-07T00:45:32;6.93;;;3.80;;
80215;SDS011;69532;37.974;23.708;2023-05-07T00:47:59;6.53;;;3.50;;
80215;SDS011;69532;37.974;23.708;2023-05-07T00:50:26;5.90;;;3.55;;
80215;SDS011;69532;37.974;23.708;2023-05-07T00:52:53;5.55;;;3.40;;
80215;SDS011;69532;37.974;23.708;2023-05-07T00:55:19;6.35;;;3.67;;
80215;SDS011;69532;37.974;23.708;2023-05-07T00:57:46;6.22;;;3.50;;
80215;SDS011;69532;37.974;23.708;2023-05-07T01:00:13;6.13;;;3.42;;
80215;SDS011;69532;37.974;23.708;2023-05-07T01:02:39;6.60;;;3.60;;
80215;SDS011;69532;37.974;23.708;2023-05-07T01:05:05;7.00;;;3.83;;
80215;SDS011;69532;37.974;23.708;2023-05-07T01:07:34;5.85;;;3.40;;
80215;SDS011;69532;37.974;23.708;2023-05-07T01:10:00;6.45;;;3.67;;
80215;SDS011;69532;37.974;23.708;2023-05-07T01:12:28;5.80;;;3.42;;
80215;SDS011;69532;37.974;23.708;2023-05-07T01:14:54;6.40;;;3.50;;
80215;SDS011;69532;37.974;23.708;2023-05-07T01:17:20;6.85;;;3.70;;
80215;SDS011;69532;37.974;23.708;2023-05-07T01:19:46;5.95;;;3.67;;
80215;SDS011;69532;37.974;23.708;2023-05-07T01:22:13;6.13;;;3.55;;
80215;SDS011;69532;37.974;23.708;2023-05-07T01:24:41;6.30;;;3.55;;
80215;SDS011;69532;37.974;23.708;2023-05-07T01:27:07;6.05;;;3.45;;
80215;SDS011;69532;37.974;23.708;2023-05-07T01:29:33;6.05;;;3.63;;
80215;SDS011;69532;37.974;23.708;2023-05-07T01:31:59;6.35;;;3.60;;
80215;SDS011;69532;37.974;23.708;2023-05-07T01:34:30;6.93;;;3.58;;
80215;SDS011;69532;37.974;23.708;2023-05-07T01:36:57;7.20;;;3.88;;
80215;SDS011;69532;37.974;23.708;2023-05-07T01:39:25;6.07;;;3.78;;
80215;SDS011;69532;37.974;23.708;2023-05-07T01:41:56;5.75;;;3.60;;
80215;SDS011;69532;37.974;23.708;2023-05-07T01:44:22;5.85;;;3.70;;
80215;SDS011;69532;37.974;23.708;2023-05-07T01:46:48;6.20;;;3.40;;
80215;SDS011;69532;37.974;23.708;2023-05-07T01:49:14;6.45;;;3.55;;
80215;SDS011;69532;37.974;23.708;2023-05-07T01:51:41;5.93;;;3.13;;
80215;SDS011;69532;37.974;23.708;2023-05-07T01:54:07;6.40;;;3.30;;
80215;SDS011;69532;37.974;23.708;2023-05-07T01:56:33;6.30;;;3.70;;
80215;SDS011;69532;37.974;23.708;2023-05-07T01:58:59;6.50;;;3.65;;
80215;SDS011;69532;37.974;23.708;2023-05-07T02:01:25;6.20;;;3.58;;
80215;SDS011;69532;37.974;23.708;2023-05-07T02:03:51;6.38;;;3.70;;
80215;SDS011;69532;37.974;23.708;2023-05-07T02:06:17;5.55;;;3.25;;
80215;SDS011;69532;37.974;23.708;2023-05-07T02:08:42;6.25;;;3.63;;
80215;SDS011;69532;37.974;23.708;2023-05-07T02:11:08;6.55;;;3.92;;
80215;SDS011;69532;37.974;23.708;2023-05-07T02:13:33;6.38;;;3.80;;
80215;SDS011;69532;37.974;23.708;2023-05-07T02:15:59;5.80;;;3.28;;
80215;SDS011;69532;37.974;23.708;2023-05-07T02:18:25;6.30;;;3.55;;
80215;SDS011;69532;37.974;23.708;2023-05-07T02:20:51;6.35;;;3.58;;
80215;SDS011;69532;37.974;23.708;2023-05-07T02:23:17;6.60;;;3.55;;
80215;SDS011;69532;37.974;23.708;2023-05-07T02:25:43;6.20;;;3.78;;
80215;SDS011;69532;37.974;23.708;2023-05-07T02:28:08;6.82;;;3.97;;
80215;SDS011;69532;37.974;23.708;2023-05-07T02:30:35;6.75;;;3.67;;
80215;SDS011;69532;37.974;23.708;2023-05-07T02:33:01;6.85;;;3.97;;
80215;SDS011;69532;37.974;23.708;2023-05-07T02:35:27;6.20;;;3.60;;
80215;SDS011;69532;37.974;23.708;2023-05-07T02:37:53;6.78;;;3.60;;
80215;SDS011;69532;37.974;23.708;2023-05-07T02:40:18;6.00;;;3.60;;
80215;SDS011;69532;37.974;23.708;2023-05-07T02:42:44;6.00;;;3.35;;
80215;SDS011;69532;37.974;23.708;2023-05-07T02:45:10;6.38;;;3.85;;
80215;SDS011;69532;37.974;23.708;2023-05-07T02:47:36;6.25;;;3.60;;
80215;SDS011;69532;37.974;23.708;2023-05-07T02:50:02;7.22;;;3.55;;
80215;SDS011;69532;37.974;23.708;2023-05-07T02:52:28;6.47;;;3.50;;
80215;SDS011;69532;37.974;23.708;2023-05-07T02:54:54;5.53;;;3.35;;
80215;SDS011;69532;37.974;23.708;2023-05-07T02:57:20;6.57;;;3.55;;
80215;SDS011;69532;37.974;23.708;2023-05-07T02:59:45;5.57;;;3.40;;
80215;SDS011;69532;37.974;23.708;2023-05-07T03:02:11;6.28;;;3.75;;
80215;SDS011;69532;37.974;23.708;2023-05-07T03:04:37;6.30;;;3.45;;
80215;SDS011;69532;37.974;23.708;2023-05-07T03:07:04;5.82;;;3.38;;
80215;SDS011;69532;37.974;23.708;2023-05-07T03:09:30;6.38;;;3.65;;
80215;SDS011;69532;37.974;23.708;2023-05-07T03:11:56;6.32;;;3.67;;
80215;SDS011;69532;37.974;23.708;2023-05-07T03:14:22;6.45;;;3.70;;
80215;SDS011;69532;37.974;23.708;2023-05-07T03:16:48;7.00;;;3.67;;
80215;SDS011;69532;37.974;23.708;2023-05-07T03:19:14;6.40;;;3.78;;
80215;SDS011;69532;37.974;23.708;2023-05-07T03:21:40;6.75;;;3.90;;
80215;SDS011;69532;37.974;23.708;2023-05-07T03:24:06;6.07;;;3.50;;
80215;SDS011;69532;37.974;23.708;2023-05-07T03:26:32;6.50;;;3.83;;
80215;SDS011;69532;37.974;23.708;2023-05-07T03:28:57;6.13;;;3.60;;
80215;SDS011;69532;37.974;23.708;2023-05-07T03:31:23;6.85;;;3.42;;
80215;SDS011;69532;37.974;23.708;2023-05-07T03:33:50;5.53;;;3.20;;
80215;SDS011;69532;37.974;23.708;2023-05-07T03:36:19;7.60;;;3.65;;
80215;SDS011;69532;37.974;23.708;2023-05-07T03:38:45;6.82;;;3.42;;
80215;SDS011;69532;37.974;23.708;2023-05-07T03:41:11;6.60;;;3.47;;
80215;SDS011;69532;37.974;23.708;2023-05-07T03:43:37;5.70;;;3.47;;
80215;SDS011;69532;37.974;23.708;2023-05-07T03:46:03;6.70;;;3.42;;
80215;SDS011;69532;37.974;23.708;2023-05-07T03:48:28;7.30;;;3.60;;
80215;SDS011;69532;37.974;23.708;2023-05-07T03:50:55;6.00;;;3.45;;
80215;SDS011;69532;37.974;23.708;2023-05-07T03:53:22;6.25;;;3.45;;
80215;SDS011;69532;37.974;23.708;2023-05-07T03:55:48;5.97;;;3.35;;
80215;SDS011;69532;37.974;23.708;2023-05-07T03:58:14;5.65;;;3.10;;
80215;SDS011;69532;37.974;23.708;2023-05-07T04:00:40;5.93;;;3.15;;
80215;SDS011;69532;37.974;23.708;2023-05-07T04:03:06;5.97;;;3.35;;
80215;SDS011;69532;37.974;23.708;2023-05-07T04:05:32;6.55;;;3.45;;
80215;SDS011;69532;37.974;23.708;2023-05-07T04:07:58;6.82;;;3.55;;
80215;SDS011;69532;37.974;23.708;2023-05-07T04:10:24;6.53;;;3.30;;
80215;SDS011;69532;37.974;23.708;2023-05-07T04:12:50;6.13;;;3.25;;
80215;SDS011;69532;37.974;23.708;2023-05-07T04:15:16;5.47;;;3.17;;
80215;SDS011;69532;37.974;23.708;2023-05-07T04:17:42;6.05;;;3.20;;
80215;SDS011;69532;37.974;23.708;2023-05-07T04:20:08;5.88;;;3.55;;
80215;SDS011;69532;37.974;23.708;2023-05-07T04:22:35;5.43;;;3.00;;
80215;SDS011;69532;37.974;23.708;2023-05-07T04:25:01;5.32;;;3.33;;
80215;SDS011;69532;37.974;23.708;2023-05-07T04:27:27;6.15;;;3.40;;
80215;SDS011;69532;37.974;23.708;2023-05-07T04:29:53;7.57;;;3.30;;
80215;SDS011;69532;37.974;23.708;2023-05-07T04:32:21;5.65;;;3.33;;
80215;SDS011;69532;37.974;23.708;2023-05-07T04:34:47;5.85;;;3.10;;
80215;SDS011;69532;37.974;23.708;2023-05-07T04:37:13;5.75;;;3.10;;
80215;SDS011;69532;37.974;23.708;2023-05-07T04:39:38;5.68;;;3.20;;
80215;SDS011;69532;37.974;23.708;2023-05-07T04:42:04;5.35;;;3.10;;
80215;SDS011;69532;37.974;23.708;2023-05-07T04:44:32;5.63;;;2.95;;
80215;SDS011;69532;37.974;23.708;2023-05-07T04:46:59;6.32;;;3.20;;
80215;SDS011;69532;37.974;23.708;2023-05-07T04:49:25;6.00;;;3.10;;
80215;SDS011;69532;37.974;23.708;2023-05-07T04:51:50;7.03;;;3.22;;
80215;SDS011;69532;37.974;23.708;2023-05-07T04:54:16;5.50;;;2.95;;
80215;SDS011;69532;37.974;23.708;2023-05-07T04:56:42;6.07;;;3.20;;
80215;SDS011;69532;37.974;23.708;2023-05-07T04:59:07;5.82;;;3.08;;
80215;SDS011;69532;37.974;23.708;2023-05-07T05:01:33;5.43;;;2.65;;
80215;SDS011;69532;37.974;23.708;2023-05-07T05:03:59;6.65;;;3.13;;
80215;SDS011;69532;37.974;23.708;2023-05-07T05:06:25;6.07;;;3.20;;
80215;SDS011;69532;37.974;23.708;2023-05-07T05:08:51;6.00;;;3.17;;
80215;SDS011;69532;37.974;23.708;2023-05-07T05:11:17;5.90;;;3.30;;
80215;SDS011;69532;37.974;23.708;2023-05-07T05:13:42;6.32;;;2.80;;
80215;SDS011;69532;37.974;23.708;2023-05-07T05:16:08;5.85;;;3.00;;
80215;SDS011;69532;37.974;23.708;2023-05-07T05:18:34;5.45;;;2.80;;
80215;SDS011;69532;37.974;23.708;2023-05-07T05:21:00;5.82;;;3.00;;
80215;SDS011;69532;37.974;23.708;2023-05-07T05:23:25;5.15;;;2.50;;
80215;SDS011;69532;37.974;23.708;2023-05-07T05:25:55;4.63;;;2.72;;
80215;SDS011;69532;37.974;23.708;2023-05-07T05:28:22;5.88;;;3.00;;
80215;SDS011;69532;37.974;23.708;2023-05-07T05:30:48;5.68;;;2.92;;
80215;SDS011;69532;37.974;23.708;2023-05-07T05:33:14;5.38;;;2.75;;
80215;SDS011;69532;37.974;23.708;2023-05-07T05:35:40;6.28;;;2.97;;
80215;SDS011;69532;37.974;23.708;2023-05-07T05:38:06;6.75;;;2.90;;
80215;SDS011;69532;37.974;23.708;2023-05-07T05:40:32;6.32;;;2.90;;
80215;SDS011;69532;37.974;23.708;2023-05-07T05:42:58;5.53;;;2.80;;
80215;SDS011;69532;37.974;23.708;2023-05-07T05:45:24;5.13;;;2.63;;
80215;SDS011;69532;37.974;23.708;2023-05-07T05:47:50;5.95;;;3.00;;
80215;SDS011;69532;37.974;23.708;2023-05-07T05:50:15;4.90;;;2.70;;
80215;SDS011;69532;37.974;23.708;2023-05-07T05:52:41;5.80;;;2.70;;
80215;SDS011;69532;37.974;23.708;2023-05-07T05:55:07;5.38;;;2.85;;
80215;SDS011;69532;37.974;23.708;2023-05-07T05:57:33;5.38;;;2.50;;
80215;SDS011;69532;37.974;23.708;2023-05-07T06:00:00;5.38;;;2.75;;
80215;SDS011;69532;37.974;23.708;2023-05-07T06:02:26;5.43;;;2.70;;
80215;SDS011;69532;37.974;23.708;2023-05-07T06:04:52;5.65;;;2.70;;
80215;SDS011;69532;37.974;23.708;2023-05-07T06:07:17;5.70;;;2.80;;
80215;SDS011;69532;37.974;23.708;2023-05-07T06:09:43;5.47;;;2.80;;
80215;SDS011;69532;37.974;23.708;2023-05-07T06:12:09;5.13;;;2.80;;
80215;SDS011;69532;37.974;23.708;2023-05-07T06:14:34;5.22;;;2.63;;
80215;SDS011;69532;37.974;23.708;2023-05-07T06:17:00;5.75;;;2.70;;
80215;SDS011;69532;37.974;23.708;2023-05-07T06:19:26;4.65;;;2.60;;
80215;SDS011;69532;37.974;23.708;2023-05-07T06:21:53;5.20;;;2.78;;
80215;SDS011;69532;37.974;23.708;2023-05-07T06:24:18;5.10;;;2.80;;
80215;SDS011;69532;37.974;23.708;2023-05-07T06:26:44;4.97;;;2.55;;
80215;SDS011;69532;37.974;23.708;2023-05-07T06:29:10;5.30;;;2.80;;
80215;SDS011;69532;37.974;23.708;2023-05-07T06:31:36;5.63;;;2.80;;
80215;SDS011;69532;37.974;23.708;2023-05-07T06:34:01;5.28;;;2.70;;
80215;SDS011;69532;37.974;23.708;2023-05-07T06:36:27;4.88;;;2.80;;
80215;SDS011;69532;37.974;23.708;2023-05-07T06:38:53;5.90;;;2.42;;
80215;SDS011;69532;37.974;23.708;2023-05-07T06:41:19;4.80;;;2.50;;
80215;SDS011;69532;37.974;23.708;2023-05-07T06:43:45;4.72;;;2.33;;
80215;SDS011;69532;37.974;23.708;2023-05-07T06:46:11;5.07;;;2.40;;
80215;SDS011;69532;37.974;23.708;2023-05-07T06:48:36;5.03;;;2.63;;
80215;SDS011;69532;37.974;23.708;2023-05-07T06:51:02;4.93;;;2.25;;
80215;SDS011;69532;37.974;23.708;2023-05-07T06:53:28;5.18;;;2.42;;
80215;SDS011;69532;37.974;23.708;2023-05-07T06:55:55;5.60;;;2.65;;
80215;SDS011;69532;37.974;23.708;2023-05-07T06:58:21;5.68;;;2.83;;
80215;SDS011;69532;37.974;23.708;2023-05-07T07:00:47;4.57;;;2.33;;
80215;SDS011;69532;37.974;23.708;2023-05-07T07:03:13;4.95;;;2.50;;
80215;SDS011;69532;37.974;23.708;2023-05-07T07:05:42;5.05;;;2.70;;
80215;SDS011;69532;37.974;23.708;2023-05-07T07:08:08;5.03;;;2.50;;
80215;SDS011;69532;37.974;23.708;2023-05-07T07:10:35;5.95;;;2.50;;
80215;SDS011;69532;37.974;23.708;2023-05-07T07:13:00;5.88;;;2.60;;
80215;SDS011;69532;37.974;23.708;2023-05-07T07:15:26;4.85;;;2.60;;
80215;SDS011;69532;37.974;23.708;2023-05-07T07:17:52;6.72;;;2.13;;
80215;SDS011;69532;37.974;23.708;2023-05-07T07:20:18;5.32;;;2.38;;
80215;SDS011;69532;37.974;23.708;2023-05-07T07:22:43;4.80;;;2.72;;
80215;SDS011;69532;37.974;23.708;2023-05-07T07:25:09;4.93;;;2.67;;
80215;SDS011;69532;37.974;23.708;2023-05-07T07:27:36;4.75;;;2.38;;
80215;SDS011;69532;37.974;23.708;2023-05-07T07:30:02;5.53;;;2.20;;
80215;SDS011;69532;37.974;23.708;2023-05-07T07:32:28;5.80;;;2.50;;
80215;SDS011;69532;37.974;23.708;2023-05-07T07:34:53;4.68;;;2.30;;
80215;SDS011;69532;37.974;23.708;2023-05-07T07:37:19;6.03;;;2.50;;
80215;SDS011;69532;37.974;23.708;2023-05-07T07:39:45;5.07;;;2.60;;
80215;SDS011;69532;37.974;23.708;2023-05-07T07:42:11;4.88;;;2.45;;
80215;SDS011;69532;37.974;23.708;2023-05-07T07:44:36;5.10;;;2.33;;
80215;SDS011;69532;37.974;23.708;2023-05-07T07:47:04;6.57;;;2.78;;
80215;SDS011;69532;37.974;23.708;2023-05-07T07:49:30;6.07;;;2.50;;
80215;SDS011;69532;37.974;23.708;2023-05-07T07:51:56;4.40;;;2.25;;
80215;SDS011;69532;37.974;23.708;2023-05-07T07:54:24;4.30;;;2.03;;
80215;SDS011;69532;37.974;23.708;2023-05-07T07:56:51;4.97;;;2.42;;
80215;SDS011;69532;37.974;23.708;2023-05-07T07:59:17;4.75;;;2.40;;
80215;SDS011;69532;37.974;23.708;2023-05-07T08:01:44;4.60;;;2.53;;
80215;SDS011;69532;37.974;23.708;2023-05-07T08:04:10;5.03;;;2.58;;
80215;SDS011;69532;37.974;23.708;2023-05-07T08:06:36;4.63;;;2.50;;
80215;SDS011;69532;37.974;23.708;2023-05-07T08:09:01;4.70;;;2.38;;
80215;SDS011;69532;37.974;23.708;2023-05-07T08:11:27;5.40;;;2.42;;
80215;SDS011;69532;37.974;23.708;2023-05-07T08:13:53;4.75;;;2.50;;
80215;SDS011;69532;37.974;23.708;2023-05-07T08:16:20;5.18;;;2.80;;
80215;SDS011;69532;37.974;23.708;2023-05-07T08:18:46;5.57;;;2.50;;
80215;SDS011;69532;37.974;23.708;2023-05-07T08:21:11;5.00;;;2.47;;
80215;SDS011;69532;37.974;23.708;2023-05-07T08:23:37;5.82;;;2.60;;
80215;SDS011;69532;37.974;23.708;2023-05-07T08:26:03;4.90;;;2.33;;
80215;SDS011;69532;37.974;23.708;2023-05-07T08:28:29;5.97;;;2.67;;
80215;SDS011;69532;37.974;23.708;2023-05-07T08:30:54;5.15;;;2.47;;
80215;SDS011;69532;37.974;23.708;2023-05-07T08:33:21;5.07;;;2.65;;
80215;SDS011;69532;37.974;23.708;2023-05-07T08:35:47;5.63;;;2.70;;
80215;SDS011;69532;37.974;23.708;2023-05-07T08:38:13;5.53;;;2.60;;
80215;SDS011;69532;37.974;23.708;2023-05-07T08:40:39;6.85;;;2.72;;
80215;SDS011;69532;37.974;23.708;2023-05-07T08:43:06;4.85;;;2.40;;
80215;SDS011;69532;37.974;23.708;2023-05-07T08:45:32;5.43;;;2.70;;
80215;SDS011;69532;37.974;23.708;2023-05-07T08:47:59;5.53;;;2.50;;
80215;SDS011;69532;37.974;23.708;2023-05-07T08:50:27;5.28;;;2.47;;
80215;SDS011;69532;37.974;23.708;2023-05-07T08:52:53;5.68;;;2.58;;
80215;SDS011;69532;37.974;23.708;2023-05-07T08:55:21;6.43;;;2.70;;
80215;SDS011;69532;37.974;23.708;2023-05-07T08:57:47;5.13;;;2.47;;
80215;SDS011;69532;37.974;23.708;2023-05-07T09:00:13;5.35;;;2.55;;
80215;SDS011;69532;37.974;23.708;2023-05-07T09:02:40;5.47;;;2.50;;
80215;SDS011;69532;37.974;23.708;2023-05-07T09:05:06;5.03;;;2.70;;
80215;SDS011;69532;37.974;23.708;2023-05-07T09:07:32;4.60;;;2.45;;
80215;SDS011;69532;37.974;23.708;2023-05-07T09:10:00;4.82;;;2.42;;
80215;SDS011;69532;37.974;23.708;2023-05-07T09:12:27;4.65;;;2.50;;
80215;SDS011;69532;37.974;23.708;2023-05-07T09:14:53;5.10;;;2.50;;
80215;SDS011;69532;37.974;23.708;2023-05-07T09:17:18;4.88;;;2.50;;
80215;SDS011;69532;37.974;23.708;2023-05-07T09:19:44;5.40;;;2.55;;
80215;SDS011;69532;37.974;23.708;2023-05-07T09:22:11;4.72;;;2.30;;
80215;SDS011;69532;37.974;23.708;2023-05-07T09:24:37;4.75;;;2.50;;
80215;SDS011;69532;37.974;23.708;2023-05-07T09:27:03;5.22;;;2.75;;
80215;SDS011;69532;37.974;23.708;2023-05-07T09:29:30;5.57;;;3.08;;
80215;SDS011;69532;37.974;23.708;2023-05-07T09:32:03;5.32;;;2.60;;
80215;SDS011;69532;37.974;23.708;2023-05-07T09:34:32;5.95;;;2.50;;
80215;SDS011;69532;37.974;23.708;2023-05-07T09:36:59;5.28;;;2.85;;
80215;SDS011;69532;37.974;23.708;2023-05-07T09:39:26;5.88;;;2.60;;
80215;SDS011;69532;37.974;23.708;2023-05-07T09:42:03;5.65;;;2.58;;
80215;SDS011;69532;37.974;23.708;2023-05-07T09:44:29;5.95;;;2.53;;
80215;SDS011;69532;37.974;23.708;2023-05-07T09:46:57;5.03;;;2.55;;
80215;SDS011;69532;37.974;23.708;2023-05-07T09:49:25;5.82;;;2.47;;
80215;SDS011;69532;37.974;23.708;2023-05-07T09:51:55;5.35;;;2.63;;
80215;SDS011;69532;37.974;23.708;2023-05-07T09:54:24;5.53;;;2.30;;
80215;SDS011;69532;37.974;23.708;2023-05-07T09:56:51;5.45;;;2.65;;
80215;SDS011;69532;37.974;23.708;2023-05-07T09:59:18;5.45;;;2.30;;
80215;SDS011;69532;37.974;23.708;2023-05-07T10:01:45;5.30;;;2.60;;
80215;SDS011;69532;37.974;23.708;2023-05-07T10:04:11;4.43;;;2.20;;
80215;SDS011;69532;37.974;23.708;2023-05-07T10:06:37;5.00;;;2.47;;
80215;SDS011;69532;37.974;23.708;2023-05-07T10:09:03;4.57;;;2.40;;
80215;SDS011;69532;37.974;23.708;2023-05-07T10:11:33;4.97;;;2.53;;
80215;SDS011;69532;37.974;23.708;2023-05-07T10:14:00;5.30;;;2.67;;
80215;SDS011;69532;37.974;23.708;2023-05-07T10:16:32;5.40;;;2.47;;
80215;SDS011;69532;37.974;23.708;2023-05-07T10:19:04;5.57;;;2.67;;
80215;SDS011;69532;37.974;23.708;2023-05-07T10:21:30;4.93;;;2.40;;
80215;SDS011;69532;37.974;23.708;2023-05-07T10:24:04;5.50;;;2.65;;
80215;SDS011;69532;37.974;23.708;2023-05-07T10:26:38;5.03;;;2.45;;
80215;SDS011;69532;37.974;23.708;2023-05-07T10:29:12;5.47;;;2.50;;
80215;SDS011;69532;37.974;23.708;2023-05-07T10:34:44;6.28;;;2.50;;
80215;SDS011;69532;37.974;23.708;2023-05-07T10:37:13;5.20;;;2.50;;
80215;SDS011;69532;37.974;23.708;2023-05-07T10:39:40;4.82;;;2.60;;
80215;SDS011;69532;37.974;23.708;2023-05-07T10:42:12;4.80;;;2.72;;
80215;SDS011;69532;37.974;23.708;2023-05-07T10:44:39;5.03;;;2.60;;
80215;SDS011;69532;37.974;23.708;2023-05-07T10:47:12;5.70;;;2.53;;
80215;SDS011;69532;37.974;23.708;2023-05-07T10:52:12;4.88;;;2.55;;
80215;SDS011;69532;37.974;23.708;2023-05-07T10:54:43;4.78;;;2.75;;
80215;SDS011;69532;37.974;23.708;2023-05-07T10:59:57;6.03;;;2.80;;
80215;SDS011;69532;37.974;23.708;2023-05-07T11:02:23;5.72;;;2.60;;
80215;SDS011;69532;37.974;23.708;2023-05-07T11:05:21;4.88;;;2.67;;
80215;SDS011;69532;37.974;23.708;2023-05-07T11:08:03;5.45;;;2.80;;
80215;SDS011;69532;37.974;23.708;2023-05-07T11:10:51;5.75;;;2.70;;
80215;SDS011;69532;37.974;23.708;2023-05-07T11:16:23;5.45;;;2.80;;
80215;SDS011;69532;37.974;23.708;2023-05-07T11:18:51;5.30;;;2.80;;
80215;SDS011;69532;37.974;23.708;2023-05-07T11:21:36;6.68;;;2.70;;
80215;SDS011;69532;37.974;23.708;2023-05-07T11:24:07;4.97;;;2.80;;
80215;SDS011;69532;37.974;23.708;2023-05-07T11:26:44;5.78;;;3.03;;
80215;SDS011;69532;37.974;23.708;2023-05-07T11:31:49;5.43;;;2.40;;
80215;SDS011;69532;37.974;23.708;2023-05-07T11:34:20;5.90;;;2.78;;
80215;SDS011;69532;37.974;23.708;2023-05-07T11:36:50;4.85;;;2.47;;
80215;SDS011;69532;37.974;23.708;2023-05-07T11:39:23;6.13;;;2.90;;
80215;SDS011;69532;37.974;23.708;2023-05-07T11:41:52;5.20;;;2.40;;
80215;SDS011;69532;37.974;23.708;2023-05-07T11:44:17;4.90;;;2.60;;
80215;SDS011;69532;37.974;23.708;2023-05-07T11:46:44;5.50;;;2.63;;
80215;SDS011;69532;37.974;23.708;2023-05-07T11:49:10;5.15;;;2.70;;
80215;SDS011;69532;37.974;23.708;2023-05-07T11:51:36;6.00;;;2.75;;
80215;SDS011;69532;37.974;23.708;2023-05-07T11:54:05;5.65;;;2.72;;
80215;SDS011;69532;37.974;23.708;2023-05-07T11:56:33;5.30;;;2.70;;
80215;SDS011;69532;37.974;23.708;2023-05-07T11:59:00;5.45;;;2.63;;
80215;SDS011;69532;37.974;23.708;2023-05-07T12:01:26;5.63;;;2.85;;
80215;SDS011;69532;37.974;23.708;2023-05-07T12:03:51;6.40;;;2.75;;
80215;SDS011;69532;37.974;23.708;2023-05-07T12:06:17;4.88;;;2.70;;
80215;SDS011;69532;37.974;23.708;2023-05-07T12:08:44;5.43;;;2.63;;
80215;SDS011;69532;37.974;23.708;2023-05-07T12:11:12;5.63;;;2.65;;
80215;SDS011;69532;37.974;23.708;2023-05-07T12:13:41;5.80;;;2.92;;
80215;SDS011;69532;37.974;23.708;2023-05-07T12:16:07;5.55;;;3.05;;
80215;SDS011;69532;37.974;23.708;2023-05-07T12:18:34;6.20;;;2.80;;
80215;SDS011;69532;37.974;23.708;2023-05-07T12:21:00;6.15;;;3.22;;
80215;SDS011;69532;37.974;23.708;2023-05-07T12:23:26;5.28;;;2.70;;
80215;SDS011;69532;37.974;23.708;2023-05-07T12:25:53;5.25;;;2.90;;
80215;SDS011;69532;37.974;23.708;2023-05-07T12:28:18;5.78;;;3.13;;
80215;SDS011;69532;37.974;23.708;2023-05-07T12:30:48;5.47;;;2.90;;
80215;SDS011;69532;37.974;23.708;2023-05-07T12:33:18;5.45;;;3.10;;
80215;SDS011;69532;37.974;23.708;2023-05-07T12:35:52;6.75;;;2.83;;
80215;SDS011;69532;37.974;23.708;2023-05-07T12:38:19;5.00;;;2.72;;
80215;SDS011;69532;37.974;23.708;2023-05-07T12:40:45;4.95;;;2.55;;
80215;SDS011;69532;37.974;23.708;2023-05-07T12:43:16;5.45;;;2.70;;
80215;SDS011;69532;37.974;23.708;2023-05-07T12:45:43;5.15;;;2.75;;
80215;SDS011;69532;37.974;23.708;2023-05-07T12:48:10;6.50;;;3.15;;
80215;SDS011;69532;37.974;23.708;2023-05-07T12:50:36;5.00;;;2.67;;
80215;SDS011;69532;37.974;23.708;2023-05-07T12:53:05;6.32;;;2.88;;
80215;SDS011;69532;37.974;23.708;2023-05-07T12:55:32;5.90;;;3.25;;
80215;SDS011;69532;37.974;23.708;2023-05-07T12:58:19;6.22;;;2.70;;
80215;SDS011;69532;37.974;23.708;2023-05-07T13:00:49;5.25;;;3.05;;
80215;SDS011;69532;37.974;23.708;2023-05-07T13:03:23;4.70;;;2.70;;
80215;SDS011;69532;37.974;23.708;2023-05-07T13:05:54;5.82;;;2.92;;
80215;SDS011;69532;37.974;23.708;2023-05-07T13:11:02;5.30;;;2.77;;
80215;SDS011;69532;37.974;23.708;2023-05-07T13:13:30;6.40;;;2.92;;
80215;SDS011;69532;37.974;23.708;2023-05-07T13:15:56;5.68;;;2.90;;
80215;SDS011;69532;37.974;23.708;2023-05-07T13:18:23;5.22;;;2.83;;
80215;SDS011;69532;37.974;23.708;2023-05-07T13:20:50;6.28;;;3.15;;
80215;SDS011;69532;37.974;23.708;2023-05-07T13:23:17;6.45;;;3.08;;
80215;SDS011;69532;37.974;23.708;2023-05-07T13:25:43;5.10;;;2.83;;
80215;SDS011;69532;37.974;23.708;2023-05-07T13:28:08;5.00;;;2.75;;
80215;SDS011;69532;37.974;23.708;2023-05-07T13:30:34;6.07;;;2.70;;
80215;SDS011;69532;37.974;23.708;2023-05-07T13:33:00;6.47;;;3.28;;
80215;SDS011;69532;37.974;23.708;2023-05-07T13:35:26;5.68;;;3.10;;
80215;SDS011;69532;37.974;23.708;2023-05-07T13:37:51;5.70;;;3.00;;
80215;SDS011;69532;37.974;23.708;2023-05-07T13:40:18;5.68;;;3.08;;
80215;SDS011;69532;37.974;23.708;2023-05-07T13:42:44;6.40;;;2.90;;
80215;SDS011;69532;37.974;23.708;2023-05-07T13:45:10;5.80;;;3.03;;
80215;SDS011;69532;37.974;23.708;2023-05-07T13:47:39;5.72;;;3.17;;
80215;SDS011;69532;37.974;23.708;2023-05-07T13:50:08;5.15;;;2.80;;
80215;SDS011;69532;37.974;23.708;2023-05-07T13:52:34;4.75;;;2.67;;
80215;SDS011;69532;37.974;23.708;2023-05-07T13:55:00;5.10;;;2.72;;
80215;SDS011;69532;37.974;23.708;2023-05-07T13:57:26;5.63;;;2.80;;
80215;SDS011;69532;37.974;23.708;2023-05-07T13:59:51;5.93;;;2.95;;
80215;SDS011;69532;37.974;23.708;2023-05-07T14:02:17;5.20;;;3.00;;
80215;SDS011;69532;37.974;23.708;2023-05-07T14:04:43;5.38;;;3.00;;
80215;SDS011;69532;37.974;23.708;2023-05-07T14:07:10;6.38;;;3.08;;
80215;SDS011;69532;37.974;23.708;2023-05-07T14:09:35;5.53;;;3.03;;
80215;SDS011;69532;37.974;23.708;2023-05-07T14:12:01;5.65;;;2.90;;
80215;SDS011;69532;37.974;23.708;2023-05-07T14:14:27;5.35;;;2.78;;
80215;SDS011;69532;37.974;23.708;2023-05-07T14:16:53;5.45;;;3.13;;
80215;SDS011;69532;37.974;23.708;2023-05-07T14:19:18;6.07;;;2.90;;
80215;SDS011;69532;37.974;23.708;2023-05-07T14:21:44;5.03;;;2.63;;
80215;SDS011;69532;37.974;23.708;2023-05-07T14:24:10;5.57;;;2.80;;
80215;SDS011;69532;37.974;23.708;2023-05-07T14:26:35;6.93;;;3.08;;
80215;SDS011;69532;37.974;23.708;2023-05-07T14:29:02;5.88;;;2.63;;
80215;SDS011;69532;37.974;23.708;2023-05-07T14:31:28;5.82;;;2.90;;
80215;SDS011;69532;37.974;23.708;2023-05-07T14:33:54;5.88;;;2.90;;
80215;SDS011;69532;37.974;23.708;2023-05-07T14:36:19;5.32;;;2.83;;
80215;SDS011;69532;37.974;23.708;2023-05-07T14:38:46;7.07;;;2.83;;
80215;SDS011;69532;37.974;23.708;2023-05-07T14:41:12;5.25;;;2.72;;
80215;SDS011;69532;37.974;23.708;2023-05-07T14:43:38;6.03;;;3.00;;
80215;SDS011;69532;37.974;23.708;2023-05-07T14:46:03;6.43;;;2.70;;
80215;SDS011;69532;37.974;23.708;2023-05-07T14:48:29;6.70;;;2.80;;